createdAt,value
2019-05-05T00:01:14.669Z,1.52
2019-05-05T00:03:46.198Z,1.52
2019-05-05T00:06:14.675Z,1.60
2019-05-05T00:08:45.644Z,1.35
2019-05-05T00:11:20.356Z,1.50
2019-05-05T00:13:52.712Z,1.40
2019-05-05T00:16:39.931Z,1.75
2019-05-05T00:19:07.999Z,1.40
2019-05-05T00:21:36.325Z,1.67
2019-05-05T00:24:05.001Z,1.55
2019-05-05T00:26:34.883Z,1.60
2019-05-05T00:29:01.212Z,2.22
2019-05-05T00:31:29.653Z,2.67
2019-05-05T00:33:57.588Z,1.70
2019-05-05T00:36:26.250Z,1.50
2019-05-05T00:38:55.261Z,1.45
2019-05-05T00:41:22.655Z,1.40
2019-05-05T00:43:50.482Z,1.70
2019-05-05T00:46:24.572Z,1.42
2019-05-05T00:48:51.024Z,1.02
2019-05-05T00:51:19.075Z,0.90
2019-05-05T00:53:47.482Z,1.23
2019-05-05T00:56:15.746Z,1.87
2019-05-05T00:58:48.278Z,2.00
2019-05-05T01:01:24.929Z,1.62
2019-05-05T01:03:52.041Z,1.30
2019-05-05T01:06:25.586Z,1.70
2019-05-05T01:08:55.022Z,1.80
2019-05-05T01:11:41.083Z,1.90
2019-05-05T01:14:09.332Z,1.83
2019-05-05T01:16:37.291Z,2.03
2019-05-05T01:19:06.466Z,1.55
2019-05-05T01:21:34.927Z,2.45
2019-05-05T01:24:02.112Z,2.15
2019-05-05T01:26:31.479Z,2.65
2019-05-05T01:29:00.958Z,2.22
2019-05-05T01:31:30.923Z,1.75
2019-05-05T01:34:06.706Z,2.05
2019-05-05T01:36:34.927Z,2.33
2019-05-05T01:39:34.720Z,2.00
2019-05-05T01:42:04.984Z,2.40
2019-05-05T01:44:35.097Z,1.23
2019-05-05T01:47:01.044Z,1.80
2019-05-05T01:49:29.106Z,2.00
2019-05-05T01:51:57.200Z,2.05
2019-05-05T01:54:25.247Z,2.87
2019-05-05T01:56:55.139Z,1.87
2019-05-05T01:59:21.464Z,2.12
2019-05-05T02:01:49.839Z,1.92
2019-05-05T02:04:17.909Z,2.72
2019-05-05T02:06:45.811Z,1.80
2019-05-05T02:09:15.755Z,2.05
2019-05-05T02:11:42.388Z,1.98
2019-05-05T02:14:10.662Z,2.15
2019-05-05T02:16:38.499Z,2.17
2019-05-05T02:19:09.568Z,2.10
2019-05-05T02:21:37.764Z,1.67
2019-05-05T02:24:05.683Z,1.48
2019-05-05T02:26:35.054Z,2.00
2019-05-05T02:29:08.337Z,2.00
2019-05-05T02:31:59.100Z,1.65
2019-05-05T02:34:27.416Z,1.50
2019-05-05T02:36:56.474Z,1.95
2019-05-05T02:39:23.721Z,1.50
2019-05-05T02:41:54.632Z,1.65
2019-05-05T02:44:19.948Z,1.67
2019-05-05T02:46:52.026Z,1.80
2019-05-05T02:49:20.572Z,2.00
2019-05-05T02:51:48.690Z,2.87
2019-05-05T02:54:16.801Z,2.17
2019-05-05T02:56:48.705Z,2.10
2019-05-05T02:59:23.790Z,2.33
2019-05-05T03:01:59.586Z,2.20
2019-05-05T03:04:28.793Z,1.85
2019-05-05T03:06:56.957Z,2.35
2019-05-05T03:09:25.851Z,2.17
2019-05-05T03:11:54.172Z,2.90
2019-05-05T03:14:23.705Z,3.22
2019-05-05T03:16:50.497Z,2.75
2019-05-05T03:19:18.862Z,3.67
2019-05-05T03:21:46.634Z,3.75
2019-05-05T03:24:14.693Z,4.18
2019-05-05T03:26:44.353Z,3.08
2019-05-05T03:29:13.866Z,3.60
2019-05-05T03:31:41.070Z,3.35
2019-05-05T03:34:09.346Z,3.80
2019-05-05T03:36:37.447Z,3.80
2019-05-05T03:39:06.282Z,4.25
2019-05-05T03:41:43.713Z,3.75
2019-05-05T03:44:17.058Z,3.75
2019-05-05T03:46:45.146Z,3.90
2019-05-05T03:49:14.233Z,3.70
2019-05-05T03:51:43.851Z,3.70
2019-05-05T03:54:09.989Z,3.65
2019-05-05T03:56:38.050Z,3.90
2019-05-05T03:59:06.434Z,4.40
2019-05-05T04:01:34.713Z,3.50
2019-05-05T04:04:20.401Z,3.62
2019-05-05T04:06:48.556Z,4.43
2019-05-05T04:09:16.442Z,4.12
2019-05-05T04:11:44.535Z,3.70
2019-05-05T04:14:14.235Z,4.12
2019-05-05T04:16:47.930Z,3.35
2019-05-05T04:19:16.023Z,3.72
2019-05-05T04:21:44.844Z,3.17
2019-05-05T04:24:14.440Z,3.03
2019-05-05T04:26:41.328Z,2.17
2019-05-05T04:29:10.541Z,3.30
2019-05-05T04:31:39.870Z,2.10
2019-05-05T04:34:08.335Z,1.30
2019-05-05T04:36:36.396Z,2.73
2019-05-05T04:39:05.573Z,3.07
2019-05-05T04:41:33.865Z,2.97
2019-05-05T04:44:03.899Z,3.37
2019-05-05T04:46:30.360Z,2.80
2019-05-05T04:49:26.730Z,2.53
2019-05-05T04:51:54.580Z,2.72
2019-05-05T04:54:29.048Z,3.12
2019-05-05T04:56:56.918Z,3.20
2019-05-05T04:59:24.346Z,2.72
2019-05-05T05:01:54.621Z,2.92
2019-05-05T05:04:36.276Z,3.17
2019-05-05T05:07:04.740Z,2.40
2019-05-05T05:09:34.049Z,2.62
2019-05-05T05:12:00.290Z,2.72
2019-05-05T05:14:28.370Z,2.83
2019-05-05T05:16:56.512Z,2.58
2019-05-05T05:19:24.628Z,2.93
2019-05-05T05:22:01.694Z,3.62
2019-05-05T05:24:20.940Z,4.47
2019-05-05T05:26:49.360Z,3.00
2019-05-05T05:29:17.176Z,3.30
2019-05-05T05:31:45.260Z,2.95
2019-05-05T05:34:14.847Z,3.35
2019-05-05T05:36:41.266Z,3.17
2019-05-05T05:39:14.076Z,2.87
2019-05-05T05:41:45.426Z,3.25
2019-05-05T05:44:27.687Z,3.30
2019-05-05T05:47:03.651Z,3.70
2019-05-05T05:49:35.557Z,3.53
2019-05-05T05:52:13.510Z,2.78
2019-05-05T05:54:31.493Z,4.22
2019-05-05T05:56:59.535Z,3.40
2019-05-05T05:59:27.627Z,3.28
2019-05-05T06:02:09.179Z,3.92
2019-05-05T06:04:23.577Z,4.07
2019-05-05T06:06:51.658Z,3.60
2019-05-05T06:09:20.022Z,3.67
2019-05-05T06:11:48.059Z,4.05
2019-05-05T06:14:16.171Z,4.57
2019-05-05T06:16:44.634Z,4.35
2019-05-05T06:19:13.953Z,4.45
2019-05-05T06:21:39.753Z,4.75
2019-05-05T06:24:08.121Z,4.85
2019-05-05T06:26:39.082Z,5.10
2019-05-05T06:29:07.242Z,3.62
2019-05-05T06:31:35.111Z,3.80
2019-05-05T06:34:03.720Z,3.67
2019-05-05T06:36:31.360Z,4.10
2019-05-05T06:38:59.215Z,3.40
2019-05-05T06:41:34.993Z,5.03
2019-05-05T06:44:16.744Z,4.28
2019-05-05T06:47:04.684Z,3.65
2019-05-05T06:49:31.374Z,3.87
2019-05-05T06:51:59.407Z,3.53
2019-05-05T06:54:27.504Z,3.80
2019-05-05T06:56:55.702Z,4.43
2019-05-05T06:59:24.343Z,4.20
2019-05-05T07:01:53.469Z,3.60
2019-05-05T07:04:19.811Z,3.22
2019-05-05T07:06:53.930Z,3.25
2019-05-05T07:09:16.141Z,3.10
2019-05-05T07:11:44.496Z,2.35
2019-05-05T07:14:14.332Z,2.05
2019-05-05T07:16:43.802Z,1.33
2019-05-05T07:19:10.114Z,2.47
2019-05-05T07:21:38.336Z,2.53
2019-05-05T07:24:06.508Z,2.65
2019-05-05T07:26:34.376Z,3.83
2019-05-05T07:29:04.465Z,2.60
2019-05-05T07:31:30.624Z,3.15
2019-05-05T07:33:58.976Z,2.85
2019-05-05T07:36:44.283Z,3.42
2019-05-05T07:39:10.338Z,2.92
2019-05-05T07:41:40.538Z,2.70
2019-05-05T07:44:06.676Z,3.12
2019-05-05T07:46:34.981Z,3.05
2019-05-05T07:49:03.883Z,3.33
2019-05-05T07:51:31.156Z,3.45
2019-05-05T07:53:59.535Z,3.95
2019-05-05T07:56:27.608Z,3.50
2019-05-05T07:58:55.487Z,4.05
2019-05-05T08:01:24.505Z,3.03
2019-05-05T08:03:53.710Z,3.37
2019-05-05T08:06:20.003Z,3.85
2019-05-05T08:08:48.505Z,3.12
2019-05-05T08:11:16.662Z,3.83
2019-05-05T08:13:44.545Z,4.00
2019-05-05T08:16:24.886Z,1.40
2019-05-05T08:19:17.738Z,1.58
2019-05-05T08:21:46.224Z,1.65
2019-05-05T08:24:22.057Z,2.75
2019-05-05T08:26:56.299Z,2.00
2019-05-05T08:29:34.561Z,2.80
2019-05-05T08:32:05.415Z,2.55
2019-05-05T08:34:33.973Z,1.58
2019-05-05T08:37:01.402Z,2.50
2019-05-05T08:39:29.675Z,3.33
2019-05-05T08:41:57.413Z,3.75
2019-05-05T08:44:25.162Z,2.97
2019-05-05T08:46:53.765Z,3.12
2019-05-05T08:49:21.523Z,2.75
2019-05-05T08:51:49.584Z,2.83
2019-05-05T08:54:17.755Z,2.67
2019-05-05T08:56:46.511Z,3.55
2019-05-05T08:59:14.812Z,2.40
2019-05-05T09:01:44.890Z,3.10
2019-05-05T09:04:10.977Z,3.40
2019-05-05T09:06:38.730Z,3.25
2019-05-05T09:09:07.306Z,3.42
2019-05-05T09:11:35.379Z,3.85
2019-05-05T09:14:04.194Z,3.10
2019-05-05T09:16:33.528Z,3.40
2019-05-05T09:19:04.207Z,3.70
2019-05-05T09:21:30.522Z,3.15
2019-05-05T09:24:02.400Z,2.53
2019-05-05T09:26:51.254Z,1.87
2019-05-05T09:29:50.806Z,1.80
2019-05-05T09:32:18.961Z,2.35
2019-05-05T09:34:47.120Z,2.90
2019-05-05T09:37:15.512Z,2.12
2019-05-05T09:39:43.848Z,3.08
2019-05-05T09:42:11.758Z,2.80
2019-05-05T09:44:39.616Z,2.55
2019-05-05T09:47:07.947Z,3.28
2019-05-05T09:49:36.149Z,3.10
2019-05-05T09:52:04.983Z,3.58
2019-05-05T09:54:34.392Z,3.65
2019-05-05T09:57:00.325Z,3.55
2019-05-05T09:59:29.267Z,3.67
2019-05-05T10:01:57.368Z,3.25
2019-05-05T10:04:25.224Z,2.50
2019-05-05T10:06:53.447Z,4.03
2019-05-05T10:09:21.474Z,2.92
2019-05-05T10:11:49.979Z,2.87
2019-05-05T10:14:18.149Z,3.53
2019-05-05T10:16:45.674Z,2.47
2019-05-05T10:19:14.243Z,2.80
2019-05-05T10:21:44.371Z,3.40
2019-05-05T10:24:27.873Z,2.33
2019-05-05T10:26:44.560Z,3.50
2019-05-05T10:29:13.603Z,3.10
2019-05-05T10:31:41.261Z,3.28
2019-05-05T10:34:09.866Z,3.90
2019-05-05T10:36:38.959Z,2.17
2019-05-05T10:39:09.788Z,3.40
2019-05-05T10:41:37.339Z,2.78
2019-05-05T10:44:04.880Z,2.40
2019-05-05T10:46:34.119Z,2.30
2019-05-05T10:49:01.424Z,2.53
2019-05-05T10:51:29.548Z,2.90
2019-05-05T10:53:57.699Z,2.78
2019-05-05T10:56:25.565Z,2.28
2019-05-05T10:58:54.608Z,2.45
2019-05-05T11:01:23.644Z,2.30
2019-05-05T11:03:51.215Z,2.72
2019-05-05T11:06:19.482Z,3.03
2019-05-05T11:08:47.582Z,3.22
2019-05-05T11:11:15.855Z,2.92
2019-05-05T11:13:45.570Z,3.92
2019-05-05T11:16:14.516Z,3.05
2019-05-05T11:18:41.362Z,2.90
2019-05-05T11:21:09.549Z,2.35
2019-05-05T11:23:37.834Z,2.10
2019-05-05T11:26:05.584Z,2.65
2019-05-05T11:28:33.999Z,1.70
2019-05-05T11:31:01.747Z,2.30
2019-05-05T11:34:06.987Z,2.50
2019-05-05T11:36:54.375Z,3.00
2019-05-05T11:39:20.713Z,2.25
2019-05-05T11:41:48.817Z,1.83
2019-05-05T11:44:17.464Z,1.55
2019-05-05T11:46:45.571Z,1.85
2019-05-05T11:49:14.145Z,2.58
2019-05-05T11:51:43.665Z,2.65
2019-05-05T11:54:09.676Z,2.80
2019-05-05T11:56:37.729Z,1.95
2019-05-05T11:59:06.341Z,2.55
2019-05-05T12:01:34.413Z,2.45
2019-05-05T12:04:04.077Z,3.28
2019-05-05T12:06:30.731Z,2.33
2019-05-05T12:08:59.633Z,2.17
2019-05-05T12:11:27.715Z,2.95
2019-05-05T12:13:55.778Z,2.90
2019-05-05T12:16:31.005Z,2.83
2019-05-05T12:18:59.278Z,2.75
2019-05-05T12:21:27.167Z,2.85
2019-05-05T12:23:55.522Z,2.87
2019-05-05T12:26:45.306Z,2.65
2019-05-05T12:29:17.990Z,3.00
2019-05-05T12:31:48.666Z,3.33
2019-05-05T12:34:16.813Z,2.97
2019-05-05T12:36:45.252Z,3.37
2019-05-05T12:39:14.787Z,2.75
2019-05-05T12:41:42.971Z,3.33
2019-05-05T12:44:11.352Z,3.05
2019-05-05T12:46:57.212Z,3.70
2019-05-05T12:49:25.507Z,4.18
2019-05-05T12:51:54.105Z,3.30
2019-05-05T12:54:21.616Z,2.87
2019-05-05T12:56:49.602Z,3.20
2019-05-05T12:59:21.162Z,3.50
2019-05-05T13:01:49.243Z,2.90
2019-05-05T13:04:17.511Z,2.45
2019-05-05T13:06:45.920Z,2.70
2019-05-05T13:09:14.235Z,2.62
2019-05-05T13:11:43.585Z,2.62
2019-05-05T13:14:10.198Z,2.45
2019-05-05T13:16:38.396Z,2.60
2019-05-05T13:19:09.943Z,2.25
2019-05-05T13:21:50.281Z,1.92
2019-05-05T13:24:56.374Z,2.60
2019-05-05T13:27:28.143Z,2.10
2019-05-05T13:29:56.187Z,2.08
2019-05-05T13:32:24.803Z,2.10
2019-05-05T13:34:54.476Z,2.00
2019-05-05T13:37:20.628Z,1.98
2019-05-05T13:39:48.830Z,2.20
2019-05-05T13:42:16.931Z,1.67
2019-05-05T13:45:00.701Z,2.00
2019-05-05T13:47:28.769Z,1.55
2019-05-05T13:50:03.744Z,2.28
2019-05-05T13:52:33.619Z,1.42
2019-05-05T13:54:59.878Z,2.03
2019-05-05T13:57:27.619Z,2.70
2019-05-05T13:59:55.477Z,2.37
2019-05-05T14:02:24.470Z,2.50
2019-05-05T14:04:51.617Z,1.80
2019-05-05T14:07:19.781Z,1.90
2019-05-05T14:09:49.160Z,1.45
2019-05-05T14:12:17.275Z,1.10
2019-05-05T14:14:45.331Z,1.90
2019-05-05T14:17:14.705Z,1.73
2019-05-05T14:19:41.171Z,1.62
2019-05-05T14:22:09.235Z,1.85
2019-05-05T14:24:58.901Z,2.20
2019-05-05T14:27:26.380Z,1.77
2019-05-05T14:30:01.419Z,1.50
2019-05-05T14:32:34.426Z,1.52
2019-05-05T14:35:19.582Z,1.65
2019-05-05T14:37:50.708Z,2.10
2019-05-05T14:40:18.818Z,2.20
2019-05-05T14:42:47.056Z,1.62
2019-05-05T14:45:15.399Z,1.90
2019-05-05T14:47:44.134Z,2.67
2019-05-05T14:50:11.581Z,2.40
2019-05-05T14:52:39.355Z,2.78
2019-05-05T14:55:07.427Z,2.75
2019-05-05T14:57:35.508Z,3.28
2019-05-05T15:00:04.766Z,3.03
2019-05-05T15:02:31.838Z,2.90
2019-05-05T15:05:00.513Z,2.67
2019-05-05T15:07:50.395Z,3.12
2019-05-05T15:10:44.079Z,2.78
2019-05-05T15:13:12.407Z,2.75
2019-05-05T15:15:40.636Z,2.28
2019-05-05T15:18:08.779Z,2.85
2019-05-05T15:20:36.725Z,3.10
2019-05-05T15:23:04.881Z,2.90
2019-05-05T15:25:34.142Z,3.15
2019-05-05T15:28:01.786Z,2.85
2019-05-05T15:30:29.872Z,3.22
2019-05-05T15:32:57.956Z,2.67
2019-05-05T15:35:26.044Z,2.60
2019-05-05T15:37:54.297Z,2.95
2019-05-05T15:40:21.995Z,3.15
2019-05-05T15:42:50.323Z,2.65
2019-05-05T15:45:17.843Z,3.30
2019-05-05T15:47:46.457Z,3.03
2019-05-05T15:50:14.578Z,2.62
2019-05-05T15:52:44.074Z,2.45
2019-05-05T15:55:10.718Z,2.87
2019-05-05T15:57:38.856Z,3.08
2019-05-05T16:00:06.957Z,4.30
2019-05-05T16:02:36.043Z,4.50
2019-05-05T16:05:04.512Z,3.10
2019-05-05T16:07:33.392Z,3.25
2019-05-05T16:10:00.061Z,2.70
2019-05-05T16:12:34.080Z,2.47
2019-05-05T16:15:14.843Z,2.12
2019-05-05T16:17:47.820Z,2.80
2019-05-05T16:20:21.585Z,2.50
2019-05-05T16:22:58.378Z,2.37
2019-05-05T16:25:26.557Z,2.90
2019-05-05T16:27:54.670Z,1.90
2019-05-05T16:30:23.549Z,2.30
2019-05-05T16:32:50.998Z,2.28
2019-05-05T16:35:19.131Z,2.47
2019-05-05T16:37:47.449Z,2.65
2019-05-05T16:40:15.513Z,2.28
2019-05-05T16:42:43.693Z,2.50
2019-05-05T16:45:11.149Z,2.47
2019-05-05T16:47:39.286Z,2.65
2019-05-05T16:50:07.494Z,2.28
2019-05-05T16:52:39.020Z,2.40
2019-05-05T16:55:25.858Z,2.22
2019-05-05T16:57:55.114Z,2.47
2019-05-05T17:00:21.748Z,2.80
2019-05-05T17:02:49.360Z,2.50
2019-05-05T17:05:17.729Z,2.55
2019-05-05T17:07:45.490Z,2.75
2019-05-05T17:10:13.829Z,2.28
2019-05-05T17:12:41.690Z,3.28
2019-05-05T17:15:24.869Z,2.53
2019-05-05T17:18:14.646Z,2.40
2019-05-05T17:20:53.460Z,2.37
2019-05-05T17:23:20.210Z,2.60
2019-05-05T17:25:48.374Z,2.67
2019-05-05T17:28:16.553Z,1.87
2019-05-05T17:30:44.783Z,2.42
2019-05-05T17:33:14.375Z,2.47
2019-05-05T17:35:41.224Z,2.95
2019-05-05T17:38:09.574Z,2.15
2019-05-05T17:40:54.734Z,1.98
2019-05-05T17:43:34.119Z,1.87
2019-05-05T17:46:13.376Z,2.12
2019-05-05T17:49:01.683Z,2.17
2019-05-05T17:51:37.916Z,2.60
2019-05-05T17:54:34.107Z,2.83
2019-05-05T17:57:03.573Z,2.50
2019-05-05T17:59:30.270Z,2.50
2019-05-05T18:01:58.139Z,2.45
2019-05-05T18:04:26.198Z,2.70
2019-05-05T18:07:14.302Z,2.60
2019-05-05T18:09:58.919Z,2.30
2019-05-05T18:12:57.675Z,3.08
2019-05-05T18:15:56.925Z,2.28
2019-05-05T18:18:25.549Z,2.33
2019-05-05T18:20:54.385Z,2.42
2019-05-05T18:23:23.435Z,2.15
2019-05-05T18:25:50.493Z,2.60
2019-05-05T18:28:20.172Z,2.47
2019-05-05T18:30:46.713Z,2.53
2019-05-05T18:33:14.865Z,2.78
2019-05-05T18:35:44.416Z,2.40
2019-05-05T18:38:11.069Z,2.50
2019-05-05T18:40:39.649Z,2.60
2019-05-05T18:43:10.716Z,2.42
2019-05-05T18:45:38.791Z,2.37
2019-05-05T18:48:06.881Z,2.65
2019-05-05T18:50:35.047Z,2.30
2019-05-05T18:53:04.688Z,2.67
2019-05-05T18:55:31.051Z,2.53
2019-05-05T18:57:59.254Z,2.40
2019-05-05T19:00:45.244Z,2.62
2019-05-05T19:03:20.555Z,3.15
2019-05-05T19:05:56.091Z,2.65
2019-05-05T19:08:27.386Z,3.30
2019-05-05T19:10:55.551Z,3.17
2019-05-05T19:13:24.482Z,3.35
2019-05-05T19:15:53.768Z,2.83
2019-05-05T19:18:19.751Z,2.50
2019-05-05T19:21:06.890Z,2.55
2019-05-05T19:23:35.761Z,3.03
2019-05-05T19:26:07.138Z,3.00
2019-05-05T19:28:42.102Z,3.20
2019-05-05T19:30:59.844Z,3.08
2019-05-05T19:33:27.732Z,3.05
2019-05-05T19:35:55.822Z,3.30
2019-05-05T19:38:23.905Z,2.60
2019-05-05T19:40:55.977Z,2.72
2019-05-05T19:43:20.069Z,3.00
2019-05-05T19:45:48.308Z,3.28
2019-05-05T19:48:16.374Z,2.90
2019-05-05T19:50:56.385Z,2.62
2019-05-05T19:53:25.378Z,3.45
2019-05-05T19:55:54.623Z,3.03
2019-05-05T19:58:21.932Z,3.17
2019-05-05T20:00:49.769Z,3.08
2019-05-05T20:03:17.608Z,3.30
2019-05-05T20:05:46.205Z,3.12
2019-05-05T20:08:14.594Z,3.50
2019-05-05T20:10:41.619Z,3.45
2019-05-05T20:13:09.997Z,3.50
2019-05-05T20:15:44.305Z,3.65
2019-05-05T20:18:10.741Z,4.07
2019-05-05T20:20:38.885Z,3.58
2019-05-05T20:23:07.005Z,3.20
2019-05-05T20:25:35.360Z,3.40
2019-05-05T20:28:03.994Z,3.30
2019-05-05T20:30:31.297Z,3.33
2019-05-05T20:33:24.380Z,3.08
2019-05-05T20:36:11.467Z,4.00
2019-05-05T20:38:57.071Z,3.97
2019-05-05T20:41:25.653Z,3.87
2019-05-05T20:43:54.303Z,3.90
2019-05-05T20:46:23.530Z,3.97
2019-05-05T20:48:49.755Z,4.00
2019-05-05T20:51:17.858Z,4.10
2019-05-05T20:53:48.910Z,3.75
2019-05-05T20:56:14.978Z,4.80
2019-05-05T20:58:43.991Z,4.55
2019-05-05T21:01:10.754Z,4.47
2019-05-05T21:03:38.830Z,4.28
2019-05-05T21:06:06.968Z,3.92
2019-05-05T21:08:35.374Z,4.78
2019-05-05T21:11:04.388Z,4.37
2019-05-05T21:13:31.301Z,5.10
2019-05-05T21:15:59.357Z,4.93
2019-05-05T21:18:27.220Z,4.80
2019-05-05T21:20:54.737Z,4.10
2019-05-05T21:23:48.373Z,5.32
2019-05-05T21:26:21.126Z,4.40
2019-05-05T21:28:49.839Z,4.80
2019-05-05T21:31:17.904Z,4.85
2019-05-05T21:33:45.969Z,5.30
2019-05-05T21:36:14.673Z,4.90
2019-05-05T21:38:43.929Z,5.22
2019-05-05T21:41:10.389Z,4.82
2019-05-05T21:43:38.548Z,5.22
2019-05-05T21:46:07.197Z,5.90
2019-05-05T21:48:35.326Z,4.85
2019-05-05T21:51:08.303Z,5.20
2019-05-05T21:53:43.950Z,5.82
2019-05-05T21:56:29.665Z,4.82
2019-05-05T21:58:58.426Z,5.30
2019-05-05T22:01:28.162Z,5.40
2019-05-05T22:03:55.296Z,4.90
2019-05-05T22:06:24.219Z,5.62
2019-05-05T22:08:53.730Z,5.60
2019-05-05T22:11:20.221Z,5.57
2019-05-05T22:13:48.078Z,5.12
2019-05-05T22:16:16.145Z,5.37
2019-05-05T22:18:44.624Z,5.45
2019-05-05T22:21:20.179Z,5.00
2019-05-05T22:24:05.841Z,5.60
2019-05-05T22:26:34.248Z,4.75
2019-05-05T22:29:04.716Z,4.68
2019-05-05T22:31:31.093Z,5.32
2019-05-05T22:33:59.212Z,5.22
2019-05-05T22:36:27.350Z,5.50
2019-05-05T22:38:55.408Z,5.15
2019-05-05T22:41:24.309Z,5.53
2019-05-05T22:43:51.570Z,4.78
2019-05-05T22:46:19.862Z,4.90
2019-05-05T22:48:48.104Z,6.27
2019-05-05T22:51:16.195Z,5.05
2019-05-05T22:53:44.352Z,5.50
2019-05-05T22:56:14.647Z,5.20
2019-05-05T22:58:40.540Z,6.20
2019-05-05T23:01:08.693Z,5.57
2019-05-05T23:03:41.864Z,5.40
2019-05-05T23:06:14.428Z,4.75
2019-05-05T23:08:42.604Z,4.25
2019-05-05T23:11:10.995Z,5.70
2019-05-05T23:13:39.065Z,4.55
2019-05-05T23:16:15.557Z,5.10
2019-05-05T23:18:44.262Z,4.68
2019-05-05T23:21:36.240Z,5.15
2019-05-05T23:24:29.198Z,5.85
2019-05-05T23:26:57.098Z,5.40
2019-05-05T23:29:26.581Z,6.32
2019-05-05T23:31:53.838Z,6.18
2019-05-05T23:34:24.217Z,5.80
2019-05-05T23:36:50.485Z,5.25
2019-05-05T23:39:18.674Z,5.60
2019-05-05T23:41:47.165Z,5.43
2019-05-05T23:44:15.334Z,6.03
2019-05-05T23:46:43.592Z,5.07
2019-05-05T23:49:13.775Z,5.62
2019-05-05T23:51:39.759Z,5.25
2019-05-05T23:54:07.821Z,6.00
2019-05-05T23:56:35.896Z,6.25
2019-05-05T23:59:04.482Z,5.07
